• Join FlightAware (Why Join?)
  • Login
  • US Flag 
Gobble Gobble! 
01:37AM EST


 

Airport Tracker/Info


-or-


 

Live Flight TrackerFlight Track Log ✈ EJA131 ✈ 24-Apr-2013 ✈ KTEB - KCHS

Flight Track Log - Related Links

Times and Time Zones

All times are in EDT time to prevent confusion due to time zone crossing. See the EJA131 flight status page for this flight to view local times or setup timezone preferences in your user account.

Time Position Orientation Groundspeed Altitude Reporting Facility
EDT Latitude Longitude Course Direction KTS MPH feet Rate Location/Type
02:39PM 40.8500 -74.0833 229° Southwest 145 167 800  Level New York TRACON
02:40PM 40.8167 -74.1333 239° Southwest 189 217 1,500 900 Climbing New York TRACON
02:41PM 40.8000 -74.2000 252° West 200 230 2,600 1,440 Climbing New York TRACON
02:42PM 40.7333 -74.2167 191° South 238 274 4,400 2,460 Climbing New York TRACON
02:43PM 40.6667 -74.2500 201° Southwest 250 288 7,800 3,000 Climbing New York TRACON
02:44PM 40.6167 -74.3000 217° Southwest 231 266 10,400 2,520 Climbing New York TRACON
02:45PM 40.5500 -74.3167 191° South 267 307 12,600 1,620 Climbing New York TRACON
02:46PM 40.4833 -74.2833 159° South 318 366 13,700 1,020 Climbing New York TRACON
02:47PM 40.3833 -74.2833 180° South 354 407 14,700 1,020 Climbing New York TRACON
02:48PM 40.3428 -74.2756 172° South 360 414 15,200 1,320 Climbing New York Center
02:49PM 40.2514 -74.2708 178° South 365 420 16,700 1,020 Climbing New York Center
02:50PM 40.1328 -74.2622 177° South 379 436 17,300 1,020 Climbing New York Center
02:51PM 40.0319 -74.2925 193° South 386 444 18,800 1,380 Climbing New York Center
02:52PM 39.9489 -74.3478 207° Southwest 370 426 20,200 1,200 Climbing New York Center
02:53PM 39.7875 -74.4708 210° Southwest 367 422 22,400 1,140 Climbing Washington Center
02:54PM 39.7133 -74.5664 225° Southwest 367 422 23,500 1,020 Climbing Washington Center
02:55PM 39.6392 -74.6644 226° Southwest 374 430 24,500 960 Climbing Washington Center
02:56PM 39.5647 -74.7650 226° Southwest 380 437 25,500 900 Climbing Washington Center
02:57PM 39.4883 -74.8683 226° Southwest 386 444 26,400 900 Climbing Washington Center
02:58PM 39.4097 -74.9683 225° Southwest 392 451 27,300 900 Climbing Washington Center
02:59PM 39.3331 -75.0711 226° Southwest 398 458 28,300 900 Climbing Washington Center
03:00PM 39.2333 -75.1442 210° Southwest 404 465 29,100 780 Climbing Washington Center
03:01PM 39.1211 -75.1875 197° South 404 465 29,900 840 Climbing Washington Center
03:02PM 39.0108 -75.2364 199° South 415 478 30,800 840 Climbing Washington Center
03:03PM 38.9003 -75.2822 198° South 420 483 31,600 780 Climbing Washington Center
03:04PM 38.7900 -75.3306 199° South 420 483 32,400 840 Climbing Washington Center
03:05PM 38.6775 -75.3736 197° South 425 489 33,300 780 Climbing Washington Center
03:06PM 38.5669 -75.4217 199° South 425 489 34,000 300 Climbing Washington Center
03:07PM 38.4503 -75.4672 197° South 425 489 34,000  Level Washington Center
03:08PM 38.3378 -75.5228 201° Southwest 430 495 34,000  Level Washington Center
03:09PM 38.2294 -75.6156 214° Southwest 425 489 34,000  Level Washington Center
03:10PM 38.1356 -75.7053 217° Southwest 430 495 34,000  Level Washington Center
03:11PM 38.0417 -75.7922 216° Southwest 430 495 34,000  Level Washington Center
03:12PM 37.9581 -75.8708 217° Southwest 430 495 34,000  Level Washington Center
03:13PM 37.8639 -75.9600 217° Southwest 430 495 34,000  Level Washington Center
03:14PM 37.7719 -76.0517 218° Southwest 430 495 34,000  Level Washington Center
03:15PM 37.6797 -76.1375 216° Southwest 430 495 34,000  Level Washington Center
03:16PM 37.5833 -76.2181 214° Southwest 425 489 34,000  Level Washington Center
03:17PM 37.4911 -76.3039 216° Southwest 425 489 34,000  Level Washington Center
03:18PM 37.3967 -76.3917 216° Southwest 425 489 34,000  Level Washington Center
03:19PM 37.3044 -76.4769 216° Southwest 425 489 34,000  Level Washington Center
03:20PM 37.2100 -76.5594 215° Southwest 425 489 34,000  Level Washington Center
03:21PM 37.1153 -76.6467 216° Southwest 425 489 34,000  Level Washington Center
03:22PM 37.0206 -76.7339 216° Southwest 425 489 34,000  Level Washington Center
03:23PM 36.9175 -76.8258 216° Southwest 430 495 34,000  Level Washington Center
03:24PM 36.8289 -76.9050 216° Southwest 437 503 34,000  Level Washington Center
03:25PM 36.7364 -76.9889 216° Southwest 432 497 34,000  Level Washington Center
03:26PM 36.6372 -77.0750 215° Southwest 432 497 34,000  Level Washington Center
03:27PM 36.5442 -77.1614 217° Southwest 432 497 34,000  Level Washington Center
03:28PM 36.4492 -77.2444 215° Southwest 432 497 34,000  Level Washington Center
03:29PM 36.3542 -77.3303 216° Southwest 432 497 34,000  Level Washington Center
03:30PM 36.2592 -77.4131 215° Southwest 432 497 34,000  Level Washington Center
03:31PM 36.1575 -77.5061 216° Southwest 419 482 34,000  Level Washington Center
03:32PM 36.0622 -77.5886 215° Southwest 419 482 34,000  Level Washington Center
03:33PM 35.9647 -77.6708 214° Southwest 419 482 34,000  Level Washington Center
03:34PM 35.8717 -77.7528 216° Southwest 419 482 34,000 -180 Level Washington Center
03:35PM 35.7761 -77.8347 215° Southwest 424 488 33,700 -420 Descending Washington Center
03:36PM 35.6850 -77.9114 214° Southwest 424 488 33,200 -480 Descending Washington Center
03:37PM 35.5936 -77.9906 215° Southwest 419 482 32,800 -480 Descending Washington Center
03:38PM 35.5003 -78.0694 215° Southwest 413 475 32,300 -480 Descending Washington Center
03:39PM 35.4069 -78.1481 214° Southwest 413 475 31,900 -420 Descending Washington Center
03:40PM 35.3283 -78.2092 212° Southwest 413 475 31,500 -480 Descending Washington Center
03:41PM 35.2200 -78.2922 212° Southwest 418 481 31,000 -540 Descending Washington Center
03:42PM 35.1203 -78.3700 213° Southwest 428 493 30,500 -540 Descending Washington Center
03:43PM 35.0225 -78.4453 212° Southwest 428 493 30,000 -480 Descending Washington Center
03:46PM 34.8025 -78.6122 212° Southwest 423 487 29,000 -480 Descending Jacksonville Center
03:47PM 34.7031 -78.6881 212° Southwest 423 487 28,500 -540 Descending Jacksonville Center
03:48PM 34.6053 -78.7633 212° Southwest 423 487 28,000 -300 Descending Jacksonville Center
03:49PM 34.5058 -78.8411 213° Southwest 423 487 28,000  Level Jacksonville Center
03:50PM 34.4183 -78.9133 214° Southwest 423 487 28,000 -300 Level Jacksonville Center
03:51PM 34.3186 -78.9908 213° Southwest 423 487 27,500 -780 Descending Jacksonville Center
03:52PM 34.2078 -79.0511 204° Southwest 429 494 26,500 -1,020 Descending Jacksonville Center
03:53PM 34.0944 -79.1011 200° South 429 494 25,500 -1,140 Descending Jacksonville Center
03:54PM 33.9833 -79.1508 200° South 434 499 24,300 -1,380 Descending Jacksonville Center
03:55PM 33.8700 -79.2008 200° South 434 499 22,800 -1,800 Descending Jacksonville Center
03:56PM 33.7550 -79.2656 205° Southwest 427 491 20,700 -2,040 Descending Jacksonville Center
03:57PM 33.6753 -79.3239 211° Southwest 396 456 18,800 -1,920 Descending Jacksonville Center
03:58PM 33.5856 -79.3922 212° Southwest 385 443 16,900 -2,100 Descending Jacksonville Center
03:59PM 33.4975 -79.4581 212° Southwest 380 437 14,700 -2,160 Descending Jacksonville Center
04:00PM 33.4136 -79.5208 212° Southwest 374 430 12,600 -1,860 Descending Jacksonville Center
04:01PM 33.3339 -79.5811 212° Southwest 362 417 11,000 -1,440 Descending Jacksonville Center
04:02PM 33.2581 -79.6361 211° Southwest 326 375 9,800 -1,380 Descending Jacksonville Center
04:03PM 33.2094 -79.6900 223° Southwest 282 325 8,300 -1,380 Descending Jacksonville Center
04:04PM 33.2072 -79.7669 268° West 225 259 7,100 -780 Descending Jacksonville Center
04:05PM 33.2025 -79.8342 265° West 219 252 6,800 -1,080 Descending Jacksonville Center
04:06PM 33.1703 -79.8850 233° Southwest 188 216 5,000 -1,500 Descending Jacksonville Center
04:07PM 33.1125 -79.9142 203° Southwest 198 228 3,900 -1,080 Descending Jacksonville Center
04:08PM 33.0611 -79.9481 209° Southwest 210 242 2,900 -960 Descending Jacksonville Center
04:09PM 33.0097 -79.9794 207° Southwest 210 242 2,000 -900 Descending Jacksonville Center
04:11PM 32.8986 -80.0405 207° Southwest  Level Estimated
04:18PM 32.8986 -80.0405 207° Southwest  Level Estimated
04:19PM 32.8986 -80.0405 207° Southwest  Level Estimated
04:20PM 32.8986 -80.0405 207° Southwest  Level Estimated